createdAt,value
2022-11-23T00:01:50.269Z,34.95
2022-11-23T00:04:54.125Z,36.92
2022-11-23T00:07:58.494Z,16.05
2022-11-23T00:11:02.381Z,28.92
2022-11-23T00:14:06.431Z,25.20
2022-11-23T00:17:10.108Z,26.17
2022-11-23T00:20:14.201Z,29.30
2022-11-23T00:23:17.928Z,18.50
2022-11-23T00:26:22.609Z,30.57
2022-11-23T00:29:25.736Z,26.02
2022-11-23T00:32:32.803Z,40.83
2022-11-23T00:35:36.229Z,22.95
2022-11-23T00:38:42.531Z,20.52
2022-11-23T00:41:45.536Z,24.33
2022-11-23T00:44:49.535Z,22.77
2022-11-23T00:47:52.639Z,16.83
2022-11-23T00:50:58.909Z,34.58
2022-11-23T00:54:04.591Z,32.97
2022-11-23T00:57:08.670Z,62.83
2022-11-23T01:00:13.137Z,36.70
2022-11-23T01:03:18.056Z,37.80
2022-11-23T01:06:33.985Z,22.10
2022-11-23T01:09:38.113Z,35.50
2022-11-23T01:12:42.245Z,38.53
2022-11-23T01:15:52.539Z,52.10
2022-11-23T01:18:58.326Z,35.07
2022-11-23T01:22:02.355Z,43.90
2022-11-23T01:25:06.738Z,46.42
2022-11-23T01:28:13.011Z,36.93
2022-11-23T01:31:18.308Z,42.05
2022-11-23T01:34:22.412Z,52.90
2022-11-23T01:37:26.452Z,42.80
2022-11-23T01:40:30.610Z,47.83
2022-11-23T01:43:34.336Z,36.88
2022-11-23T01:46:38.432Z,34.72
2022-11-23T01:49:45.652Z,39.73
2022-11-23T01:52:49.538Z,39.72
2022-11-23T01:55:55.588Z,43.80
2022-11-23T01:59:03.612Z,54.90
2022-11-23T02:02:07.354Z,48.70
2022-11-23T02:05:12.825Z,48.90
2022-11-23T02:08:21.988Z,53.72
2022-11-23T02:11:25.946Z,61.83
2022-11-23T02:14:30.445Z,58.47
2022-11-23T02:17:37.334Z,62.05
2022-11-23T02:20:43.987Z,44.28
2022-11-23T02:23:53.386Z,34.77
2022-11-23T02:26:57.670Z,36.47
2022-11-23T02:30:04.155Z,29.15
2022-11-23T02:33:08.291Z,34.85
2022-11-23T02:36:30.138Z,37.77
2022-11-23T02:39:39.533Z,30.52
2022-11-23T02:42:45.199Z,34.75
2022-11-23T02:45:56.505Z,35.28
2022-11-23T02:49:01.318Z,64.65
2022-11-23T02:52:05.246Z,83.65
2022-11-23T02:55:09.742Z,79.20
2022-11-23T02:58:13.593Z,63.43
2022-11-23T03:01:18.213Z,72.22
2022-11-23T03:04:27.605Z,36.88
2022-11-23T03:07:33.701Z,30.97
2022-11-23T03:10:36.804Z,39.10
2022-11-23T03:13:40.334Z,37.17
2022-11-23T03:16:45.340Z,48.70
2022-11-23T03:19:52.750Z,51.83
2022-11-23T03:22:56.122Z,69.90
2022-11-23T03:26:02.769Z,91.43
2022-11-23T03:29:14.839Z,70.47
2022-11-23T03:32:18.914Z,72.57
2022-11-23T03:35:25.722Z,99.22
2022-11-23T03:38:51.505Z,80.90
2022-11-23T03:42:09.669Z,85.37
2022-11-23T03:45:13.909Z,73.07
2022-11-23T03:48:17.951Z,109.68
2022-11-23T03:51:22.234Z,95.40
2022-11-23T03:54:26.008Z,88.53
2022-11-23T03:57:30.612Z,99.15
2022-11-23T04:00:36.846Z,117.20
2022-11-23T04:03:41.129Z,124.28
2022-11-23T04:06:50.047Z,114.57
2022-11-23T04:10:01.209Z,138.02
2022-11-23T04:13:25.355Z,115.47
2022-11-23T04:16:29.452Z,101.63
2022-11-23T04:19:33.487Z,83.00
2022-11-23T04:22:37.451Z,73.93
2022-11-23T04:25:41.197Z,113.57
2022-11-23T04:28:44.867Z,98.60
2022-11-23T04:31:48.693Z,82.13
2022-11-23T04:34:54.778Z,88.20
2022-11-23T04:37:58.523Z,78.82
2022-11-23T04:41:05.789Z,84.15
2022-11-23T04:44:10.191Z,91.05
2022-11-23T04:47:16.263Z,89.93
2022-11-23T04:50:22.107Z,73.77
2022-11-23T04:53:30.207Z,75.90
2022-11-23T04:56:35.490Z,78.75
2022-11-23T04:59:39.985Z,101.30
2022-11-23T05:02:43.753Z,102.47
2022-11-23T05:06:00.910Z,81.97
2022-11-23T05:09:12.952Z,99.63
2022-11-23T05:12:37.710Z,111.90
2022-11-23T05:15:42.946Z,103.40
2022-11-23T05:18:54.445Z,125.18
2022-11-23T05:21:59.861Z,129.18
2022-11-23T05:25:05.495Z,132.57
2022-11-23T05:31:27.420Z,96.63
2022-11-23T05:34:31.124Z,72.82
2022-11-23T05:37:35.402Z,36.03
2022-11-23T05:40:42.652Z,17.10
2022-11-23T05:43:47.040Z,16.20
2022-11-23T05:46:56.878Z,9.20
2022-11-23T05:50:03.375Z,14.05
2022-11-23T05:53:07.966Z,14.50
2022-11-23T05:56:12.732Z,16.35
2022-11-23T05:59:35.014Z,10.68
2022-11-23T06:02:41.370Z,11.40
2022-11-23T06:05:48.169Z,10.85
2022-11-23T06:08:55.937Z,11.68
2022-11-23T06:12:00.334Z,10.95
2022-11-23T06:15:05.137Z,12.77
2022-11-23T06:18:09.790Z,10.13
2022-11-23T06:21:21.481Z,10.70
2022-11-23T06:24:25.820Z,13.18
2022-11-23T06:27:57.783Z,13.18
2022-11-23T06:31:07.586Z,15.80
2022-11-23T06:34:11.659Z,16.60
2022-11-23T06:37:15.564Z,22.52
2022-11-23T06:40:25.426Z,22.42
2022-11-23T06:43:29.784Z,23.70
2022-11-23T06:46:34.452Z,22.13
2022-11-23T06:49:38.316Z,20.47
2022-11-23T06:52:59.151Z,16.75
2022-11-23T06:56:11.879Z,10.77
2022-11-23T06:59:16.859Z,17.73
2022-11-23T07:02:20.652Z,14.52
2022-11-23T07:05:25.615Z,13.00
2022-11-23T07:08:30.212Z,13.60
2022-11-23T07:11:38.708Z,12.23
2022-11-23T07:14:42.039Z,12.07
2022-11-23T07:17:46.749Z,11.68
2022-11-23T07:20:50.612Z,13.13
2022-11-23T07:23:54.536Z,18.42
2022-11-23T07:26:58.611Z,17.67
2022-11-23T07:30:02.835Z,20.23
2022-11-23T07:33:11.393Z,11.75
2022-11-23T07:36:16.498Z,19.13
2022-11-23T07:39:36.407Z,19.83
2022-11-23T07:42:46.335Z,16.38
2022-11-23T07:45:50.519Z,14.52
2022-11-23T07:48:55.516Z,19.00
2022-11-23T07:51:58.879Z,13.40
2022-11-23T07:55:03.096Z,14.32
2022-11-23T07:58:07.099Z,20.23
2022-11-23T08:01:12.819Z,18.63
2022-11-23T08:04:16.205Z,21.52
2022-11-23T08:07:20.294Z,21.07
2022-11-23T08:10:23.684Z,21.45
2022-11-23T08:13:27.602Z,19.42
2022-11-23T08:16:31.713Z,21.77
2022-11-23T08:19:35.798Z,26.10
2022-11-23T08:22:39.433Z,24.20
2022-11-23T08:25:43.132Z,22.38
2022-11-23T08:28:46.755Z,31.02
2022-11-23T08:31:50.698Z,32.00
2022-11-23T08:34:54.264Z,29.63
2022-11-23T08:37:58.162Z,35.03
2022-11-23T08:41:03.165Z,32.72
2022-11-23T08:44:09.202Z,30.92
2022-11-23T08:47:12.501Z,24.95
2022-11-23T08:50:16.601Z,27.90
2022-11-23T08:53:20.696Z,52.63
2022-11-23T08:56:25.141Z,29.55
2022-11-23T08:59:28.823Z,26.67
2022-11-23T09:02:32.873Z,43.60
2022-11-23T09:05:39.719Z,49.95
2022-11-23T09:08:43.524Z,43.63
2022-11-23T09:11:46.392Z,38.90
2022-11-23T09:14:50.538Z,61.60
2022-11-23T09:17:54.325Z,63.63
2022-11-23T09:20:58.375Z,74.85
2022-11-23T09:24:02.391Z,71.40
2022-11-23T09:27:06.420Z,73.13
2022-11-23T09:30:10.769Z,75.57
2022-11-23T09:33:14.916Z,87.40
2022-11-23T09:36:18.491Z,89.30
2022-11-23T09:39:22.482Z,65.93
2022-11-23T09:43:01.192Z,87.25
2022-11-23T09:46:14.835Z,113.05
2022-11-23T09:49:21.819Z,55.90
2022-11-23T09:52:26.552Z,45.65
2022-11-23T09:55:44.443Z,74.13
2022-11-23T09:58:50.606Z,88.85
2022-11-23T10:02:23.811Z,66.03
2022-11-23T10:05:36.703Z,74.57
2022-11-23T10:08:46.387Z,70.20
2022-11-23T10:12:15.667Z,71.50
2022-11-23T10:15:31.356Z,81.07
2022-11-23T10:18:55.188Z,64.10
2022-11-23T10:22:18.383Z,72.13
2022-11-23T10:25:24.027Z,63.25
2022-11-23T10:28:32.925Z,82.57
2022-11-23T10:31:37.288Z,86.07
2022-11-23T10:35:15.202Z,128.00
2022-11-23T10:38:25.938Z,137.10
2022-11-23T10:41:31.982Z,131.70
2022-11-23T10:44:38.558Z,116.27
2022-11-23T10:47:50.498Z,144.73
2022-11-23T10:50:53.550Z,136.15
2022-11-23T10:54:05.183Z,140.07
2022-11-23T10:57:45.752Z,106.43
2022-11-23T11:01:01.188Z,141.67
2022-11-23T11:04:05.382Z,148.80
2022-11-23T11:07:29.226Z,231.30
2022-11-23T11:10:50.425Z,284.50
2022-11-23T11:14:06.993Z,277.50
2022-11-23T11:17:27.356Z,216.53
2022-11-23T11:20:35.317Z,254.15
2022-11-23T11:23:42.247Z,245.70
2022-11-23T11:27:03.386Z,234.88
2022-11-23T11:30:23.280Z,251.40
2022-11-23T11:33:38.755Z,384.33
2022-11-23T11:37:10.510Z,365.08
2022-11-23T11:40:35.029Z,335.65
2022-11-23T11:44:07.219Z,366.10
2022-11-23T11:47:19.550Z,318.67
2022-11-23T11:50:31.615Z,243.33
2022-11-23T11:53:49.961Z,262.48
2022-11-23T11:57:08.046Z,224.73
2022-11-23T12:00:17.959Z,293.67
2022-11-23T12:03:53.577Z,315.85
2022-11-23T12:07:04.030Z,241.07
2022-11-23T12:10:42.479Z,266.77
2022-11-23T12:13:47.526Z,199.68
2022-11-23T12:17:31.899Z,191.80
2022-11-23T12:21:09.382Z,207.93
2022-11-23T12:24:40.308Z,199.20
2022-11-23T12:28:02.063Z,241.05
2022-11-23T12:31:20.120Z,216.68
2022-11-23T12:34:30.233Z,183.45
2022-11-23T12:38:00.514Z,90.10
2022-11-23T12:41:25.272Z,154.50
2022-11-23T12:45:07.189Z,97.45
2022-11-23T12:48:51.410Z,156.30
2022-11-23T12:52:25.634Z,193.13
2022-11-23T12:55:32.310Z,123.35
2022-11-23T12:58:39.225Z,154.13
2022-11-23T13:01:49.790Z,36.25
2022-11-23T13:04:53.810Z,35.28
2022-11-23T13:08:14.689Z,28.50
2022-11-23T13:11:35.827Z,16.75
2022-11-23T13:15:03.528Z,24.35
2022-11-23T13:18:44.312Z,45.47
2022-11-23T13:21:48.541Z,25.83
2022-11-23T13:25:10.945Z,63.33
2022-11-23T13:28:31.531Z,32.85
2022-11-23T13:31:36.744Z,28.17
2022-11-23T13:34:48.098Z,38.97
2022-11-23T13:37:58.096Z,52.93
2022-11-23T13:41:01.838Z,80.15
2022-11-23T13:44:20.719Z,81.28
2022-11-23T13:47:24.776Z,50.65
2022-11-23T13:50:29.525Z,39.25
2022-11-23T13:53:37.301Z,36.53
2022-11-23T13:56:44.024Z,51.10
2022-11-23T13:59:47.729Z,61.85
2022-11-23T14:02:51.422Z,192.82
2022-11-23T14:06:00.389Z,118.88
2022-11-23T14:09:14.447Z,83.22
2022-11-23T14:12:36.248Z,33.00
2022-11-23T14:15:44.920Z,20.83
2022-11-23T14:18:59.490Z,18.15
2022-11-23T14:22:19.636Z,17.15
2022-11-23T14:25:32.504Z,7.88
2022-11-23T14:29:07.391Z,7.80
2022-11-23T14:32:40.763Z,10.63
2022-11-23T14:36:14.367Z,9.73
2022-11-23T14:39:45.451Z,13.48
2022-11-23T14:42:55.888Z,7.30
2022-11-23T14:46:04.917Z,8.67
2022-11-23T14:49:14.032Z,11.68
2022-11-23T14:52:23.618Z,9.27
2022-11-23T14:55:31.710Z,17.65
2022-11-23T14:58:37.382Z,4.63
2022-11-23T15:01:47.676Z,10.10
2022-11-23T15:05:03.882Z,15.32
2022-11-23T15:08:17.790Z,10.13
2022-11-23T15:11:24.499Z,4.22
2022-11-23T15:14:28.472Z,6.85
2022-11-23T15:17:32.262Z,2.93
2022-11-23T15:20:43.285Z,5.28
2022-11-23T15:23:57.995Z,10.30
2022-11-23T15:27:12.340Z,6.18
2022-11-23T15:30:27.275Z,11.47
2022-11-23T15:33:31.379Z,15.85
2022-11-23T15:36:38.809Z,47.67
2022-11-23T15:39:43.191Z,69.40
2022-11-23T15:42:49.131Z,65.63
2022-11-23T15:45:53.089Z,62.55
2022-11-23T15:48:57.791Z,78.70
2022-11-23T15:52:03.369Z,89.53
2022-11-23T15:55:10.455Z,138.57
2022-11-23T15:58:19.906Z,77.57
2022-11-23T16:01:23.397Z,58.95
2022-11-23T16:04:36.456Z,83.50
2022-11-23T16:07:59.467Z,67.88
2022-11-23T16:11:03.183Z,65.15
2022-11-23T16:14:17.242Z,94.15
2022-11-23T16:17:24.636Z,72.05
2022-11-23T16:20:29.944Z,63.60
2022-11-23T16:23:36.213Z,68.67
2022-11-23T16:26:39.681Z,63.92
2022-11-23T16:29:43.430Z,71.88
2022-11-23T16:32:46.672Z,58.08
2022-11-23T16:35:51.154Z,71.50
2022-11-23T16:38:54.506Z,68.97
2022-11-23T16:41:57.924Z,76.93
2022-11-23T16:45:05.086Z,63.40
2022-11-23T16:48:24.318Z,64.13
2022-11-23T16:51:28.310Z,60.97
2022-11-23T16:54:32.199Z,82.45
2022-11-23T16:57:36.129Z,92.53
2022-11-23T17:00:40.814Z,57.38
2022-11-23T17:03:45.202Z,79.20
2022-11-23T17:06:48.984Z,72.63
2022-11-23T17:09:52.699Z,73.10
2022-11-23T17:12:56.587Z,69.13
2022-11-23T17:16:00.348Z,61.03
2022-11-23T17:19:04.294Z,63.72
2022-11-23T17:22:08.640Z,77.00
2022-11-23T17:25:15.286Z,97.13
2022-11-23T17:28:24.242Z,69.03
2022-11-23T17:31:28.340Z,67.47
2022-11-23T17:34:31.590Z,56.55
2022-11-23T17:37:37.766Z,75.88
2022-11-23T17:40:41.893Z,53.25
2022-11-23T17:43:46.157Z,57.65
2022-11-23T17:46:52.641Z,59.90
2022-11-23T17:49:57.761Z,62.90
2022-11-23T17:53:02.031Z,68.60
2022-11-23T17:56:06.143Z,72.65
2022-11-23T17:59:10.506Z,66.63
2022-11-23T18:02:14.386Z,63.10
2022-11-23T18:05:21.856Z,61.63
2022-11-23T18:08:25.987Z,58.80
2022-11-23T18:11:30.126Z,61.78
2022-11-23T18:14:33.908Z,65.57
2022-11-23T18:17:38.210Z,54.42
2022-11-23T18:20:41.484Z,50.95
2022-11-23T18:23:45.573Z,57.25
2022-11-23T18:26:48.600Z,53.77
2022-11-23T18:29:52.874Z,59.20
2022-11-23T18:32:55.921Z,52.40
2022-11-23T18:36:05.299Z,43.65
2022-11-23T18:39:08.936Z,56.73
2022-11-23T18:42:12.992Z,58.45
2022-11-23T18:45:16.271Z,40.03
2022-11-23T18:48:19.820Z,39.88
2022-11-23T18:51:24.068Z,39.30
2022-11-23T18:54:27.666Z,38.67
2022-11-23T18:57:31.318Z,33.65
2022-11-23T19:00:35.447Z,40.85
2022-11-23T19:03:40.847Z,27.95
2022-11-23T19:06:44.208Z,33.33
2022-11-23T19:09:47.225Z,24.45
2022-11-23T19:12:50.896Z,34.08
2022-11-23T19:15:54.700Z,39.28
2022-11-23T19:19:07.595Z,43.67
2022-11-23T19:22:11.239Z,52.22
2022-11-23T19:25:14.837Z,70.30
2022-11-23T19:28:18.563Z,77.65
2022-11-23T19:31:23.275Z,74.63
2022-11-23T19:34:26.515Z,67.28
2022-11-23T19:37:29.905Z,68.35
2022-11-23T19:40:32.895Z,54.60
2022-11-23T19:43:37.327Z,68.40
2022-11-23T19:46:40.408Z,78.97
2022-11-23T19:49:43.810Z,53.97
2022-11-23T19:53:11.301Z,50.22
2022-11-23T19:56:21.947Z,52.87
2022-11-23T19:59:26.394Z,48.25
2022-11-23T20:02:31.069Z,31.00
2022-11-23T20:05:34.710Z,51.47
2022-11-23T20:08:39.074Z,44.80
2022-11-23T20:11:45.929Z,39.10
2022-11-23T20:14:53.529Z,48.20
2022-11-23T20:17:57.270Z,51.42
2022-11-23T20:21:02.639Z,42.03
2022-11-23T20:24:14.269Z,46.15
2022-11-23T20:27:18.295Z,43.92
2022-11-23T20:30:21.893Z,42.15
2022-11-23T20:33:25.891Z,22.45
2022-11-23T20:36:35.108Z,18.27
2022-11-23T20:39:39.114Z,12.05
2022-11-23T20:42:42.831Z,17.00
2022-11-23T20:45:46.423Z,12.35
2022-11-23T20:48:52.944Z,10.05
2022-11-23T20:51:56.942Z,11.55
2022-11-23T20:55:00.647Z,14.05
2022-11-23T20:58:04.639Z,12.88
2022-11-23T21:01:18.045Z,21.43
2022-11-23T21:04:22.562Z,9.00
2022-11-23T21:07:26.188Z,12.80
2022-11-23T21:10:48.232Z,13.90
2022-11-23T21:14:08.357Z,9.43
2022-11-23T21:17:15.630Z,14.15
2022-11-23T21:20:19.267Z,13.57
2022-11-23T21:23:23.305Z,10.52
2022-11-23T21:26:27.358Z,6.93
2022-11-23T21:29:31.812Z,5.13
2022-11-23T21:32:35.448Z,212.95
2022-11-23T21:35:39.513Z,101.57
2022-11-23T21:38:43.537Z,54.08
2022-11-23T21:41:48.399Z,23.63
2022-11-23T21:44:52.042Z,13.35
2022-11-23T21:47:56.252Z,8.95
2022-11-23T21:51:05.852Z,10.48
2022-11-23T21:54:16.552Z,10.20
2022-11-23T21:57:20.357Z,7.40
2022-11-23T22:00:29.872Z,6.13
2022-11-23T22:03:43.194Z,9.18
2022-11-23T22:06:47.219Z,9.38
2022-11-23T22:09:50.818Z,10.13
2022-11-23T22:12:56.820Z,14.03
2022-11-23T22:16:00.811Z,9.15
2022-11-23T22:19:06.483Z,8.75
2022-11-23T22:22:10.226Z,8.07
2022-11-23T22:25:14.265Z,8.00
2022-11-23T22:28:18.823Z,18.47
2022-11-23T22:31:25.738Z,12.50
2022-11-23T22:34:30.623Z,20.17
2022-11-23T22:37:34.773Z,9.50
2022-11-23T22:40:39.098Z,14.15
2022-11-23T22:43:43.467Z,12.77
2022-11-23T22:46:46.862Z,24.13
2022-11-23T22:49:51.382Z,120.03
2022-11-23T22:52:55.125Z,27.02
2022-11-23T22:56:04.002Z,16.63
2022-11-23T22:59:07.734Z,23.70
2022-11-23T23:02:11.956Z,19.17
2022-11-23T23:05:15.811Z,14.82
2022-11-23T23:08:19.903Z,15.05
2022-11-23T23:11:24.793Z,19.13
2022-11-23T23:14:28.889Z,17.25
2022-11-23T23:17:32.665Z,16.75
2022-11-23T23:20:37.053Z,13.60
2022-11-23T23:23:43.637Z,13.40
2022-11-23T23:26:47.322Z,11.77
2022-11-23T23:29:51.083Z,14.35
2022-11-23T23:32:58.001Z,13.50
2022-11-23T23:36:10.263Z,9.88
2022-11-23T23:39:14.343Z,11.40
2022-11-23T23:42:18.777Z,14.20
2022-11-23T23:45:22.889Z,11.95
2022-11-23T23:48:29.911Z,8.50
2022-11-23T23:51:34.170Z,10.70
2022-11-23T23:54:37.898Z,10.45
2022-11-23T23:57:42.014Z,20.50
